Time;durP1;ratioP1;P1;durP2;ratioP2;P2;SDS_P1;SDS_P2;PMS_P1;PMS_P2;Temp;Humidity;BMP_temperature;BMP_pressure;BME280_temperature;BME280_humidity;BME280_pressure;Samples;Min_cycle;Max_cycle;Signal;HPM_P1;HPM_P2
2023/02/10 00:00:01;;;;;;;;;;;;;;;-13.32;69.63;95121.38;5041415;28;19920;-49
2023/02/10 00:02:26;;;;;;;;;;;;;;;-13.35;69.81;95117.56;5049444;28;20074;-47
2023/02/10 00:04:52;;;;;;;;;;;;;;;-13.06;69.38;95118.75;5048142;28;20007;-49
2023/02/10 00:07:17;;;;;;;;;;;;;;;-13.32;69.63;95124.03;5048997;28;19928;-49
2023/02/10 00:09:43;;;;;;;;;;;;;;;-13.25;68.80;95127.56;5049211;28;19916;-48
2023/02/10 00:12:09;;;;;;;;;;;;;;;-13.32;68.58;95129.38;5049170;28;19927;-49
2023/02/10 00:14:35;;;;;;;;;;;;;;;-13.64;69.79;95125.44;5049638;28;19924;-49
2023/02/10 00:17:00;;;;;;;;;;;;;;;-13.57;70.48;95128.19;5049300;28;19913;-50
2023/02/10 00:19:27;;;;;;;;;;;;;;;-13.64;70.67;95130.75;5049297;28;19917;-50
2023/02/10 00:21:52;;;;;;;;;;;;;;;-13.61;70.29;95130.03;5049462;28;20335;-48
2023/02/10 00:24:17;;;;;;;;;;;;;;;-13.33;70.29;95122.50;5044926;28;19917;-49
2023/02/10 00:26:43;;;;;;;;;;;;;;;-13.44;69.87;95126.88;5037620;28;19913;-49
2023/02/10 00:29:08;;;;;;;;;;;;;;;-13.51;70.03;95132.09;5032034;28;19921;-50
2023/02/10 00:31:33;;;;;;;;;;;;;;;-13.60;70.19;95127.03;5028913;28;19917;-48
2023/02/10 00:33:58;;;;;;;;;;;;;;;-13.72;70.03;95121.88;5028903;28;19924;-49
2023/02/10 00:36:24;;;;;;;;;;;;;;;-13.77;69.80;95116.13;5029156;28;19924;-48
2023/02/10 00:38:50;;;;;;;;;;;;;;;-13.65;69.50;95110.59;5028801;28;20467;-48
2023/02/10 00:41:16;;;;;;;;;;;;;;;-13.92;69.94;95107.13;5029312;28;20028;-49
2023/02/10 00:43:42;;;;;;;;;;;;;;;-14.16;70.92;95102.16;5045037;28;19917;-49
2023/02/10 00:46:08;;;;;;;;;;;;;;;-14.18;71.51;95091.13;5048665;28;19920;-49
2023/02/10 00:48:33;;;;;;;;;;;;;;;-14.48;71.13;95093.63;5048754;28;19917;-48
2023/02/10 00:50:59;;;;;;;;;;;;;;;-14.13;70.63;95101.44;5048588;28;19917;-48
2023/02/10 00:53:24;;;;;;;;;;;;;;;-14.34;70.69;95093.13;5048952;28;19927;-48
2023/02/10 00:55:49;;;;;;;;;;;;;;;-14.46;71.25;95086.09;5048346;28;20596;-49
2023/02/10 00:58:15;;;;;;;;;;;;;;;-14.34;71.43;95095.78;5042718;28;19928;-48
2023/02/10 01:00:40;;;;;;;;;;;;;;;-14.26;70.56;95089.47;5045826;28;20017;-49
2023/02/10 01:03:05;;;;;;;;;;;;;;;-14.35;69.95;95081.75;5047645;28;19992;-51
2023/02/10 01:05:30;;;;;;;;;;;;;;;-14.61;70.63;95079.00;5047925;28;20011;-50
2023/02/10 01:07:56;;;;;;;;;;;;;;;-14.85;71.52;95072.09;5048272;28;19912;-48
2023/02/10 01:10:21;;;;;;;;;;;;;;;-14.90;71.10;95066.31;5048156;28;20007;-50
2023/02/10 01:12:46;;;;;;;;;;;;;;;-14.99;71.67;95069.16;5048046;28;19928;-48
2023/02/10 01:15:12;;;;;;;;;;;;;;;-14.95;72.45;95069.22;5048165;28;19916;-50
2023/02/10 01:17:37;;;;;;;;;;;;;;;-14.89;71.88;95063.31;5048123;28;20669;-49
2023/02/10 01:20:03;;;;;;;;;;;;;;;-14.53;73.04;95069.31;5048298;28;19923;-51
2023/02/10 01:22:28;;;;;;;;;;;;;;;-14.50;71.38;95063.28;5028229;28;19924;-50
2023/02/10 01:24:54;;;;;;;;;;;;;;;-14.47;70.43;95058.06;5028023;28;20308;-51
2023/02/10 01:27:19;;;;;;;;;;;;;;;-14.34;70.03;95056.78;5027673;28;19917;-50
2023/02/10 01:29:44;;;;;;;;;;;;;;;-14.28;69.55;95058.00;5028236;28;19917;-51
2023/02/10 01:32:09;;;;;;;;;;;;;;;-14.31;69.77;95050.75;5027552;28;20320;-48
2023/02/10 01:34:36;;;;;;;;;;;;;;;-14.46;71.24;95051.63;5028236;28;19921;-49
2023/02/10 01:37:01;;;;;;;;;;;;;;;-14.65;70.89;95046.34;5027911;28;19916;-49
2023/02/10 01:39:26;;;;;;;;;;;;;;;-14.33;70.22;95044.28;5027808;28;20294;-49
2023/02/10 01:41:51;;;;;;;;;;;;;;;-14.25;69.88;95044.00;5029140;28;19920;-49
2023/02/10 01:44:19;;;;;;;;;;;;;;;-14.66;70.80;95042.19;5047664;28;19922;-49
2023/02/10 01:46:45;;;;;;;;;;;;;;;-14.58;70.08;95048.38;5047604;28;19917;-50
2023/02/10 01:49:11;;;;;;;;;;;;;;;-14.79;69.86;95046.84;5047543;28;19966;-49
2023/02/10 01:51:38;;;;;;;;;;;;;;;-14.90;69.89;95042.47;5046252;28;19920;-49
2023/02/10 01:54:04;;;;;;;;;;;;;;;-14.85;70.19;95039.53;5047749;28;19920;-49
2023/02/10 01:56:29;;;;;;;;;;;;;;;-14.89;70.42;95054.59;5046049;28;19923;-49
2023/02/10 01:58:54;;;;;;;;;;;;;;;-14.55;68.86;95039.72;5038686;28;20003;-51
2023/02/10 02:01:20;;;;;;;;;;;;;;;-14.81;69.56;95038.47;5047556;28;19917;-48
2023/02/10 02:03:45;;;;;;;;;;;;;;;-14.91;70.51;95046.22;5047391;28;19917;-51
2023/02/10 02:06:10;;;;;;;;;;;;;;;-15.10;70.47;95046.22;5046952;28;19931;-50
2023/02/10 02:08:36;;;;;;;;;;;;;;;-15.44;71.33;95041.75;5047684;28;19971;-50
2023/02/10 02:11:04;;;;;;;;;;;;;;;-15.37;70.29;95036.59;5045786;28;20418;-49
2023/02/10 02:13:48;;;;;;;;;;;;;;;-15.23;70.64;95037.63;5049199;28;19974;-52
2023/02/10 02:16:31;;;;;;;;;;;;;;;-15.14;70.39;95040.09;5053939;28;19912;-53
2023/02/10 02:19:00;;;;;;;;;;;;;;;-15.22;69.53;95030.47;5034024;28;19921;-49
2023/02/10 02:21:25;;;;;;;;;;;;;;;-15.05;69.76;95036.09;5034029;28;19964;-49
2023/02/10 02:23:50;;;;;;;;;;;;;;;-14.97;68.58;95034.38;5033817;28;19955;-49
2023/02/10 02:26:34;;;;;;;;;;;;;;;-15.40;69.70;95031.97;5034004;28;19917;-51
2023/02/10 02:29:19;;;;;;;;;;;;;;;-15.32;70.41;95033.63;5049969;28;19952;-50
2023/02/10 02:31:48;;;;;;;;;;;;;;;-14.89;69.17;95030.75;5052759;28;19973;-49
2023/02/10 02:34:34;;;;;;;;;;;;;;;-14.89;68.91;95026.22;5049038;28;19914;-50
2023/02/10 02:37:01;;;;;;;;;;;;;;;-14.99;70.21;95012.75;5026099;28;19913;-52
2023/02/10 02:39:27;;;;;;;;;;;;;;;-15.08;70.39;95006.91;5034209;28;20079;-50
2023/02/10 02:42:18;;;;;;;;;;;;;;;-15.20;70.54;94999.09;5033497;28;20437;-49
2023/02/10 02:44:45;;;;;;;;;;;;;;;-15.09;70.34;95010.69;5032417;28;19924;-50
2023/02/10 02:47:16;;;;;;;;;;;;;;;-14.93;70.98;95004.19;5032387;28;19950;-50
2023/02/10 02:50:13;;;;;;;;;;;;;;;-14.88;70.36;94989.88;5033818;28;19917;-49
2023/02/10 02:53:02;;;;;;;;;;;;;;;-14.78;69.17;94994.59;5021123;28;19921;-48
2023/02/10 02:55:33;;;;;;;;;;;;;;;-15.04;68.96;94992.63;5030557;28;19917;-49
2023/02/10 02:58:21;;;;;;;;;;;;;;;-15.57;69.30;94991.56;5033530;28;20008;-50
2023/02/10 03:00:47;;;;;;;;;;;;;;;-15.74;69.91;94991.19;5028626;28;19959;-49
2023/02/10 03:03:12;;;;;;;;;;;;;;;-15.81;69.74;94985.75;5032347;28;20689;-48
2023/02/10 03:05:37;;;;;;;;;;;;;;;-15.88;70.13;94989.00;5033389;28;19929;-50
2023/02/10 03:08:03;;;;;;;;;;;;;;;-16.02;70.29;94985.28;5033635;28;19924;-49
2023/02/10 03:10:28;;;;;;;;;;;;;;;-15.69;71.99;94980.31;5033867;28;19923;-48
2023/02/10 03:12:53;;;;;;;;;;;;;;;-15.33;71.76;94987.84;5033070;28;19933;-48
2023/02/10 03:15:19;;;;;;;;;;;;;;;-15.20;71.21;94991.16;5033338;28;19913;-50
2023/02/10 03:17:44;;;;;;;;;;;;;;;-15.32;68.93;94993.94;5033438;28;19917;-49
2023/02/10 03:20:10;;;;;;;;;;;;;;;-15.63;68.94;94992.94;5033481;28;20007;-51
2023/02/10 03:22:35;;;;;;;;;;;;;;;-15.63;69.58;94989.53;5031888;28;19916;-50
2023/02/10 03:25:00;;;;;;;;;;;;;;;-15.35;68.84;94990.09;5031754;28;19924;-52
2023/02/10 03:27:25;;;;;;;;;;;;;;;-15.26;68.47;94995.94;5033252;28;20408;-49
2023/02/10 03:29:52;;;;;;;;;;;;;;;-15.69;69.33;95004.91;5050240;28;19948;-49
2023/02/10 03:32:17;;;;;;;;;;;;;;;-15.87;70.04;94995.81;5036223;28;19921;-50
2023/02/10 03:34:42;;;;;;;;;;;;;;;-16.19;69.75;94973.16;5030011;28;19927;-50
2023/02/10 03:37:08;;;;;;;;;;;;;;;-16.05;69.71;94985.94;5030075;28;20016;-49
2023/02/10 03:39:33;;;;;;;;;;;;;;;-15.85;70.12;94990.19;5030045;28;19917;-49
2023/02/10 03:41:58;;;;;;;;;;;;;;;-15.78;69.13;94985.81;5030078;28;19967;-52
2023/02/10 03:44:23;;;;;;;;;;;;;;;-15.86;69.59;94989.41;5029766;28;20308;-52
2023/02/10 03:46:49;;;;;;;;;;;;;;;-16.00;69.38;94981.16;5030008;28;19913;-50
2023/02/10 03:49:14;;;;;;;;;;;;;;;-16.15;70.14;94976.66;5029834;28;19924;-50
2023/02/10 03:51:39;;;;;;;;;;;;;;;-16.12;69.85;94983.13;5029695;28;19917;-49
2023/02/10 03:54:04;;;;;;;;;;;;;;;-16.29;70.33;94980.84;5029969;28;19924;-48
2023/02/10 03:56:30;;;;;;;;;;;;;;;-16.20;70.16;94984.88;5029732;28;19967;-49
2023/02/10 03:58:55;;;;;;;;;;;;;;;-16.40;70.31;94984.00;5032667;28;19921;-49
2023/02/10 04:01:20;;;;;;;;;;;;;;;-16.54;70.72;94986.31;5049522;28;19939;-49
2023/02/10 04:03:46;;;;;;;;;;;;;;;-16.44;70.90;94977.88;5049605;28;20537;-48
2023/02/10 04:06:11;;;;;;;;;;;;;;;-16.12;69.79;94975.97;5049251;28;19932;-52
2023/02/10 04:08:36;;;;;;;;;;;;;;;-16.17;70.13;94980.78;5049672;28;19923;-52
2023/02/10 04:11:02;;;;;;;;;;;;;;;-15.99;70.31;94989.84;5030797;28;19921;-50
2023/02/10 04:13:27;;;;;;;;;;;;;;;-15.87;71.27;94982.59;5029898;28;20310;-52
2023/02/10 04:16:15;;;;;;;;;;;;;;;-15.76;70.57;94972.22;5029679;28;19974;-50
2023/02/10 04:18:41;;;;;;;;;;;;;;;-15.60;71.16;94975.59;5021039;28;19913;-50
2023/02/10 04:21:07;;;;;;;;;;;;;;;-15.45;71.27;94969.50;5029109;28;19917;-51
2023/02/10 04:23:33;;;;;;;;;;;;;;;-15.45;69.21;94980.09;5029618;28;19924;-49
2023/02/10 04:25:58;;;;;;;;;;;;;;;-15.66;69.82;94972.47;5029229;28;19917;-52
2023/02/10 04:28:23;;;;;;;;;;;;;;;-15.97;69.40;94971.75;5029293;28;19917;-50
2023/02/10 04:30:52;;;;;;;;;;;;;;;-15.88;69.68;94973.13;5029109;28;19913;-50
2023/02/10 04:33:17;;;;;;;;;;;;;;;-15.90;70.16;94969.28;5029280;28;19921;-50
2023/02/10 04:35:44;;;;;;;;;;;;;;;-15.82;69.94;94979.69;5028925;28;19936;-48
2023/02/10 04:38:09;;;;;;;;;;;;;;;-16.10;70.38;94972.97;5027917;28;20132;-48
2023/02/10 04:40:35;;;;;;;;;;;;;;;-16.40;70.56;94981.38;5029232;28;20027;-51
2023/02/10 04:43:00;;;;;;;;;;;;;;;-16.61;70.81;94980.13;5039357;28;19923;-49
2023/02/10 04:45:25;;;;;;;;;;;;;;;-16.74;70.60;94979.44;5048803;28;19919;-49
2023/02/10 04:47:50;;;;;;;;;;;;;;;-16.84;70.40;94984.41;5048519;28;20444;-49
2023/02/10 04:50:16;;;;;;;;;;;;;;;-16.88;71.37;94981.69;5048744;28;19913;-49
2023/02/10 04:52:41;;;;;;;;;;;;;;;-16.83;71.48;94985.97;5048410;28;19921;-51
2023/02/10 04:55:06;;;;;;;;;;;;;;;-16.66;71.38;94981.13;5048598;28;19978;-51
2023/02/10 04:57:32;;;;;;;;;;;;;;;-16.58;70.88;94976.78;5048596;28;19959;-50
2023/02/10 04:59:57;;;;;;;;;;;;;;;-16.51;71.04;94984.88;5039599;28;20019;-50
2023/02/10 05:02:22;;;;;;;;;;;;;;;-16.63;71.69;94990.25;5048254;28;19920;-52
2023/02/10 05:04:47;;;;;;;;;;;;;;;-16.49;70.82;94986.06;5048670;28;20286;-51
2023/02/10 05:07:13;;;;;;;;;;;;;;;-16.30;70.50;94985.38;5030187;28;20415;-52
2023/02/10 05:09:38;;;;;;;;;;;;;;;-16.15;69.86;94987.22;5028372;28;19917;-51
2023/02/10 05:12:03;;;;;;;;;;;;;;;-16.17;70.97;94986.81;5028018;28;19921;-52
2023/02/10 05:14:29;;;;;;;;;;;;;;;-16.09;70.93;94990.41;5028580;28;19921;-51
2023/02/10 05:16:54;;;;;;;;;;;;;;;-16.21;70.91;94987.81;5028477;28;19999;-51
2023/02/10 05:19:19;;;;;;;;;;;;;;;-16.08;70.17;94992.69;5028542;28;20352;-49
2023/02/10 05:21:44;;;;;;;;;;;;;;;-16.16;69.22;95000.81;5028478;28;19913;-51
2023/02/10 05:24:10;;;;;;;;;;;;;;;-16.40;69.35;94999.09;5028539;28;20382;-49
2023/02/10 05:26:35;;;;;;;;;;;;;;;-16.21;69.79;95008.97;5027962;28;19917;-50
2023/02/10 05:29:01;;;;;;;;;;;;;;;-16.30;69.73;95003.13;5028408;28;19924;-51
2023/02/10 05:31:26;;;;;;;;;;;;;;;-16.73;69.01;95015.28;5034082;28;19919;-51
2023/02/10 05:33:53;;;;;;;;;;;;;;;-16.87;69.35;95008.88;5034053;28;19916;-49
2023/02/10 05:36:18;;;;;;;;;;;;;;;-17.01;69.40;95017.19;5028051;28;19975;-50
2023/02/10 05:39:22;;;;;;;;;;;;;;;-17.08;69.65;95016.25;5027943;28;20608;-50
2023/02/10 05:41:29;;;;;;;;;;;;;;;-16.94;70.04;95024.53;5027681;28;19913;-52
2023/02/10 05:43:54;;;;;;;;;;;;;;;-16.86;70.10;95023.59;5045715;28;19913;-49
2023/02/10 05:46:19;;;;;;;;;;;;;;;-16.63;69.75;95021.97;5047777;28;19923;-50
2023/02/10 05:48:45;;;;;;;;;;;;;;;-16.50;69.53;95020.78;5046973;28;20407;-50
2023/02/10 05:51:10;;;;;;;;;;;;;;;-16.53;69.28;95029.38;5047832;28;19956;-49
2023/02/10 05:53:36;;;;;;;;;;;;;;;-16.48;68.95;95034.41;5047337;28;20020;-50
2023/02/10 05:56:01;;;;;;;;;;;;;;;-16.25;69.61;95038.00;5047255;28;20281;-50
2023/02/10 05:58:27;;;;;;;;;;;;;;;-15.95;68.36;95033.81;5039944;28;19917;-51
2023/02/10 06:00:53;;;;;;;;;;;;;;;-16.00;67.86;95034.06;5046143;28;19924;-51
2023/02/10 06:03:18;;;;;;;;;;;;;;;-16.06;67.99;95030.13;5030732;28;19919;-50
2023/02/10 06:05:43;;;;;;;;;;;;;;;-15.88;67.52;95033.97;5027303;28;20424;-52
2023/02/10 06:08:08;;;;;;;;;;;;;;;-16.04;68.72;95035.84;5027257;28;19929;-51
2023/02/10 06:10:34;;;;;;;;;;;;;;;-16.22;68.99;95037.31;5027366;28;19913;-49
2023/02/10 06:12:59;;;;;;;;;;;;;;;-15.92;69.16;95041.06;5027370;28;19921;-49
2023/02/10 06:15:24;;;;;;;;;;;;;;;-15.74;69.02;95044.13;5027536;28;19913;-50
2023/02/10 06:17:49;;;;;;;;;;;;;;;-15.67;68.55;95047.69;5027507;28;19917;-50
2023/02/10 06:20:15;;;;;;;;;;;;;;;-15.69;68.54;95049.91;5027257;28;20373;-49
2023/02/10 06:22:40;;;;;;;;;;;;;;;-15.46;67.63;95050.03;5026989;28;19925;-50
2023/02/10 06:25:05;;;;;;;;;;;;;;;-15.59;67.44;95040.69;5027116;28;19970;-50
2023/02/10 06:27:31;;;;;;;;;;;;;;;-15.70;69.02;95052.91;5027385;28;19913;-49
2023/02/10 06:29:56;;;;;;;;;;;;;;;-15.82;68.94;95050.34;5027402;28;20019;-51
2023/02/10 06:32:21;;;;;;;;;;;;;;;-15.69;69.58;95057.84;5040676;28;20305;-50
2023/02/10 06:34:46;;;;;;;;;;;;;;;-15.26;68.14;95066.69;5047370;28;20058;-48
2023/02/10 06:37:12;;;;;;;;;;;;;;;-15.10;68.76;95052.28;5047255;28;19917;-49
2023/02/10 06:39:37;;;;;;;;;;;;;;;-14.83;69.19;95061.13;5047380;28;20706;-48
2023/02/10 06:42:02;;;;;;;;;;;;;;;-14.61;68.95;95062.31;5044483;28;19917;-49
2023/02/10 06:44:28;;;;;;;;;;;;;;;-14.41;68.90;95061.19;5027014;28;19944;-51
2023/02/10 06:46:53;;;;;;;;;;;;;;;-14.44;69.38;95060.00;5027184;28;19960;-50
2023/02/10 06:49:18;;;;;;;;;;;;;;;-14.31;70.23;95057.97;5027245;28;19924;-50
2023/02/10 06:51:44;;;;;;;;;;;;;;;-13.97;70.43;95064.97;5026804;28;19917;-50
2023/02/10 06:54:09;;;;;;;;;;;;;;;-13.69;70.67;95056.69;5027087;28;19913;-49
2023/02/10 06:56:34;;;;;;;;;;;;;;;-13.44;69.58;95058.59;5026890;28;19917;-52
2023/02/10 06:59:00;;;;;;;;;;;;;;;-13.17;69.26;95059.34;5035411;28;19920;-49
2023/02/10 07:01:25;;;;;;;;;;;;;;;-11.92;67.40;95052.38;5029166;28;19924;-50
2023/02/10 07:03:50;;;;;;;;;;;;;;;-10.61;63.05;95056.66;5030674;28;19913;-50
2023/02/10 07:06:18;;;;;;;;;;;;;;;-9.57;60.70;95059.94;5030611;28;20324;-50
2023/02/10 07:08:43;;;;;;;;;;;;;;;-9.10;58.06;95064.13;5030451;28;20698;-51
2023/02/10 07:11:08;;;;;;;;;;;;;;;-8.48;56.59;95061.66;5030464;28;19916;-50
2023/02/10 07:13:34;;;;;;;;;;;;;;;-8.90;57.14;95062.56;5030228;28;20013;-50
2023/02/10 07:15:59;;;;;;;;;;;;;;;-8.41;57.27;95056.31;5030521;28;20019;-50
2023/02/10 07:18:24;;;;;;;;;;;;;;;-6.56;54.15;95047.25;5030388;28;20007;-51
2023/02/10 07:20:49;;;;;;;;;;;;;;;-3.89;50.16;95040.28;5030667;28;19917;-49
2023/02/10 07:23:15;;;;;;;;;;;;;;;-2.73;44.72;95042.22;5030424;28;19917;-49
2023/02/10 07:25:40;;;;;;;;;;;;;;;-0.30;41.17;95040.38;5030303;28;20036;-50
2023/02/10 07:28:07;;;;;;;;;;;;;;;0.02;38.75;95033.84;5049767;28;19913;-50
2023/02/10 07:30:33;;;;;;;;;;;;;;;1.66;37.63;95044.16;5049916;28;19913;-51
2023/02/10 07:32:59;;;;;;;;;;;;;;;3.04;34.15;95038.75;5043429;28;20011;-50
2023/02/10 07:35:24;;;;;;;;;;;;;;;2.52;34.34;95040.00;5030482;28;19913;-50
2023/02/10 07:37:50;;;;;;;;;;;;;;;2.22;33.69;95038.22;5030005;28;20296;-49
2023/02/10 07:40:15;;;;;;;;;;;;;;;3.69;32.38;95035.97;5029702;28;20327;-49
2023/02/10 07:42:40;;;;;;;;;;;;;;;5.05;29.57;95040.16;5037853;28;19912;-50
2023/02/10 07:45:06;;;;;;;;;;;;;;;5.07;29.91;95034.22;5049914;28;19912;-50
2023/02/10 07:47:31;;;;;;;;;;;;;;;4.33;29.32;95044.41;5049595;28;19916;-50
2023/02/10 07:49:57;;;;;;;;;;;;;;;4.72;30.32;95036.88;5050025;28;19912;-51
2023/02/10 07:52:22;;;;;;;;;;;;;;;4.97;29.23;95041.03;5049629;28;20457;-50
2023/02/10 07:54:48;;;;;;;;;;;;;;;5.65;29.17;95042.25;5041457;28;20661;-50
2023/02/10 07:57:13;;;;;;;;;;;;;;;6.58;28.68;95038.41;5029997;28;19976;-51
2023/02/10 07:59:38;;;;;;;;;;;;;;;7.42;27.43;95040.59;5037913;28;19952;-51
2023/02/10 08:02:04;;;;;;;;;;;;;;;7.25;26.49;95039.72;5049777;28;19913;-48
2023/02/10 08:04:30;;;;;;;;;;;;;;;7.57;27.29;95041.19;5049586;28;20516;-49
2023/02/10 08:06:55;;;;;;;;;;;;;;;8.74;25.56;95036.91;5049173;28;19928;-49
2023/02/10 08:09:21;;;;;;;;;;;;;;;8.93;25.64;95041.44;5049650;28;19917;-49
2023/02/10 08:11:46;;;;;;;;;;;;;;;8.91;25.00;95041.19;5048896;28;20470;-50
2023/02/10 08:14:12;;;;;;;;;;;;;;;8.84;25.23;95036.16;5049258;28;19913;-50
2023/02/10 08:16:37;;;;;;;;;;;;;;;8.73;24.72;95027.88;5049330;28;19921;-51
2023/02/10 08:19:02;;;;;;;;;;;;;;;9.21;25.11;95022.16;5049215;28;19919;-50
2023/02/10 08:21:28;;;;;;;;;;;;;;;9.25;24.83;95017.13;5049256;28;20371;-48
2023/02/10 08:23:54;;;;;;;;;;;;;;;9.48;24.72;95018.63;5049066;28;20700;-49
2023/02/10 08:26:20;;;;;;;;;;;;;;;6.99;27.82;95017.81;5043534;28;19917;-50
2023/02/10 08:28:45;;;;;;;;;;;;;;;8.78;26.90;95029.91;5029172;28;19944;-48
2023/02/10 08:31:10;;;;;;;;;;;;;;;9.83;24.81;95020.81;5033047;28;20384;-50
2023/02/10 08:33:36;;;;;;;;;;;;;;;10.07;24.65;95028.50;5037226;28;19921;-50
2023/02/10 08:36:08;;;;;;;;;;;;;;;10.45;24.34;95011.03;5029057;28;19952;-49
2023/02/10 08:38:33;;;;;;;;;;;;;;;9.32;24.83;95016.63;5029063;28;19916;-52
2023/02/10 08:40:58;;;;;;;;;;;;;;;6.81;27.39;95029.13;5028698;28;20018;-53
2023/02/10 08:43:24;;;;;;;;;;;;;;;7.99;27.55;95021.16;5028793;28;19917;-51
2023/02/10 08:45:49;;;;;;;;;;;;;;;9.29;26.29;95028.66;5028625;28;19917;-53
2023/02/10 08:48:14;;;;;;;;;;;;;;;11.07;24.53;95012.13;5028839;28;19956;-51
2023/02/10 08:50:40;;;;;;;;;;;;;;;11.38;23.48;95019.94;5028553;28;20728;-52
2023/02/10 08:53:05;;;;;;;;;;;;;;;10.71;24.45;95021.69;5028752;28;19924;-49
2023/02/10 08:55:30;;;;;;;;;;;;;;;11.99;24.32;95019.34;5028382;28;19956;-53
2023/02/10 08:57:56;;;;;;;;;;;;;;;13.13;23.15;95025.94;5027138;28;19917;-54
2023/02/10 09:00:21;;;;;;;;;;;;;;;12.91;22.01;95012.38;5042838;28;19944;-53
2023/02/10 09:02:48;;;;;;;;;;;;;;;14.07;21.68;95006.91;5048221;28;19939;-53
2023/02/10 09:05:14;;;;;;;;;;;;;;;13.53;21.76;95010.91;5048350;28;19916;-50
2023/02/10 09:07:39;;;;;;;;;;;;;;;14.14;21.14;95009.78;5048161;28;19982;-52
2023/02/10 09:10:05;;;;;;;;;;;;;;;13.38;21.29;95007.88;5048003;28;19913;-51
2023/02/10 09:12:30;;;;;;;;;;;;;;;12.70;21.88;95003.09;5048136;28;19917;-51
2023/02/10 09:14:56;;;;;;;;;;;;;;;13.39;22.30;95012.16;5048150;28;19916;-51
2023/02/10 09:17:21;;;;;;;;;;;;;;;13.77;21.01;95007.22;5048255;28;19912;-51
2023/02/10 09:19:46;;;;;;;;;;;;;;;13.74;21.08;95001.97;5047893;28;20412;-51
2023/02/10 09:22:11;;;;;;;;;;;;;;;13.27;21.57;95001.75;5048189;28;20000;-53
2023/02/10 09:24:37;;;;;;;;;;;;;;;13.87;19.76;94999.94;5047057;28;20638;-51
2023/02/10 09:27:02;;;;;;;;;;;;;;;15.40;20.09;94990.09;5037013;28;19933;-51
2023/02/10 09:29:27;;;;;;;;;;;;;;;16.70;19.02;94980.00;5027985;28;20466;-53
2023/02/10 09:31:52;;;;;;;;;;;;;;;15.82;19.94;94988.78;5037449;28;19921;-52
2023/02/10 09:34:18;;;;;;;;;;;;;;;13.94;20.51;94990.22;5030527;28;19971;-49
2023/02/10 09:36:43;;;;;;;;;;;;;;;15.66;19.88;94981.59;5027704;28;19923;-51
2023/02/10 09:39:09;;;;;;;;;;;;;;;16.00;19.49;94976.66;5027661;28;19917;-50
2023/02/10 09:41:34;;;;;;;;;;;;;;;15.61;18.83;94980.47;5027807;28;19937;-50
2023/02/10 09:44:08;;;;;;;;;;;;;;;15.98;19.31;94973.69;5027832;28;19917;-50
2023/02/10 09:46:33;;;;;;;;;;;;;;;16.18;19.36;94972.84;5027489;28;20420;-51
2023/02/10 09:49:12;;;;;;;;;;;;;;;15.53;19.78;94973.34;5028050;28;19921;-49
2023/02/10 09:51:57;;;;;;;;;;;;;;;14.75;20.93;94977.22;5038867;28;19924;-50
2023/02/10 09:54:22;;;;;;;;;;;;;;;14.96;21.22;94967.63;5047574;28;19999;-54
2023/02/10 09:56:47;;;;;;;;;;;;;;;15.46;20.86;94960.13;5047353;28;20007;-50
2023/02/10 09:59:14;;;;;;;;;;;;;;;16.51;20.01;94969.16;5033855;28;19913;-52
2023/02/10 10:01:42;;;;;;;;;;;;;;;15.69;19.60;94955.47;5027942;28;20467;-53
2023/02/10 10:04:08;;;;;;;;;;;;;;;15.47;18.91;94958.81;5026558;28;20007;-51
2023/02/10 10:06:55;;;;;;;;;;;;;;;14.54;19.29;94949.38;5027144;28;19925;-51
2023/02/10 10:09:37;;;;;;;;;;;;;;;13.71;20.63;94953.06;5027473;28;19917;-53
2023/02/10 10:12:02;;;;;;;;;;;;;;;13.93;21.04;94945.06;5027292;28;20479;-52
2023/02/10 10:14:29;;;;;;;;;;;;;;;14.43;21.09;94933.69;5027932;28;20024;-50
2023/02/10 10:16:57;;;;;;;;;;;;;;;13.08;22.26;94942.84;5027519;28;19913;-50
2023/02/10 10:19:33;;;;;;;;;;;;;;;14.14;20.81;94929.22;5027347;28;20639;-52
2023/02/10 10:22:04;;;;;;;;;;;;;;;14.32;20.58;94924.84;5026372;28;20405;-49
2023/02/10 10:24:29;;;;;;;;;;;;;;;13.81;21.39;94931.94;5027272;28;19924;-50
2023/02/10 10:26:55;;;;;;;;;;;;;;;13.88;21.86;94922.97;5027380;28;19917;-54
2023/02/10 10:29:21;;;;;;;;;;;;;;;14.28;21.72;94927.16;5027698;28;19917;-50
2023/02/10 10:31:46;;;;;;;;;;;;;;;13.51;20.91;94927.44;5035697;28;19917;-51
2023/02/10 10:34:14;;;;;;;;;;;;;;;13.71;21.97;94930.88;5042828;28;19917;-53
2023/02/10 10:36:49;;;;;;;;;;;;;;;13.89;21.27;94924.44;5029976;28;20007;-49
2023/02/10 10:39:33;;;;;;;;;;;;;;;14.04;22.01;94922.63;5030259;28;19929;-50
2023/02/10 10:42:04;;;;;;;;;;;;;;;15.53;20.89;94917.66;5031778;28;19991;-50
2023/02/10 10:44:30;;;;;;;;;;;;;;;14.95;21.02;94918.09;5031556;28;19917;-50
2023/02/10 10:47:01;;;;;;;;;;;;;;;15.08;20.98;94913.22;5029853;28;19921;-49
2023/02/10 10:49:26;;;;;;;;;;;;;;;14.54;20.59;94904.91;5030050;28;19928;-51
2023/02/10 10:51:51;;;;;;;;;;;;;;;14.45;21.38;94902.56;5031240;28;19921;-50
2023/02/10 10:54:18;;;;;;;;;;;;;;;15.40;20.54;94904.56;5031200;28;20396;-51
2023/02/10 10:56:49;;;;;;;;;;;;;;;15.61;19.77;94896.22;5029856;28;19967;-50
2023/02/10 10:59:15;;;;;;;;;;;;;;;15.08;19.33;94898.56;5039436;28;19921;-50
2023/02/10 11:01:41;;;;;;;;;;;;;;;14.84;19.02;94893.31;5030844;28;19924;-49
2023/02/10 11:04:11;;;;;;;;;;;;;;;14.94;18.99;94886.03;5031094;28;20453;-50
2023/02/10 11:06:36;;;;;;;;;;;;;;;14.32;19.35;94880.38;5029212;28;20031;-49
2023/02/10 11:09:03;;;;;;;;;;;;;;;14.48;18.22;94889.63;5031107;28;19956;-52
2023/02/10 11:11:33;;;;;;;;;;;;;;;13.97;18.65;94884.38;5029714;28;19971;-49
2023/02/10 11:13:58;;;;;;;;;;;;;;;14.76;18.12;94878.63;5029550;28;20372;-47
2023/02/10 11:16:23;;;;;;;;;;;;;;;14.90;17.35;94883.56;5030696;28;19917;-52
2023/02/10 11:18:53;;;;;;;;;;;;;;;14.60;17.36;94879.75;5030785;28;19917;-49
2023/02/10 11:21:18;;;;;;;;;;;;;;;13.77;17.63;94879.53;5030224;28;19917;-52
2023/02/10 11:23:50;;;;;;;;;;;;;;;14.23;16.88;94875.25;5030870;28;19913;-49
2023/02/10 11:26:22;;;;;;;;;;;;;;;13.54;17.80;94870.88;5030526;28;20297;-49
2023/02/10 11:28:48;;;;;;;;;;;;;;;14.29;18.75;94875.91;5030550;28;20002;-50
2023/02/10 11:31:25;;;;;;;;;;;;;;;13.61;18.61;94861.91;5034692;28;19916;-49
2023/02/10 11:34:01;;;;;;;;;;;;;;;13.39;18.27;94862.34;5036755;28;20328;-49
2023/02/10 11:36:37;;;;;;;;;;;;;;;13.30;18.05;94865.53;5030284;28;19947;-49
2023/02/10 11:39:04;;;;;;;;;;;;;;;13.22;18.84;94859.13;5029303;28;19914;-49
2023/02/10 11:41:30;;;;;;;;;;;;;;;14.05;17.67;94849.16;5029110;28;19916;-49
2023/02/10 11:43:55;;;;;;;;;;;;;;;13.55;16.63;94825.22;5036813;28;19921;-48
2023/02/10 11:46:39;;;;;;;;;;;;;;;14.31;15.24;94846.28;5029436;28;19924;-49
2023/02/10 11:49:09;;;;;;;;;;;;;;;13.99;16.65;94842.94;5028838;28;19913;-48
2023/02/10 11:51:34;;;;;;;;;;;;;;;14.37;15.65;94843.41;5028576;28;20371;-49
2023/02/10 11:53:59;;;;;;;;;;;;;;;14.25;16.33;94837.31;5028792;28;19925;-49
2023/02/10 11:59:31;;;;;;;;;;;;;;;13.42;18.52;94832.78;5036672;28;19928;-49
2023/02/10 12:02:02;;;;;;;;;;;;;;;12.61;17.79;94837.22;5049584;28;20392;-51
2023/02/10 12:04:39;;;;;;;;;;;;;;;11.85;17.84;94838.59;5049402;28;19921;-48
2023/02/10 12:07:10;;;;;;;;;;;;;;;12.65;18.20;94837.66;5049202;28;19925;-47
2023/02/10 12:09:39;;;;;;;;;;;;;;;13.48;19.09;94830.63;5049426;28;19916;-50
2023/02/10 12:12:17;;;;;;;;;;;;;;;12.89;19.08;94835.50;5048163;28;19916;-50
2023/02/10 12:14:59;;;;;;;;;;;;;;;12.36;19.10;94828.31;5048088;28;20416;-50
2023/02/10 12:17:27;;;;;;;;;;;;;;;12.72;19.38;94826.72;5049145;28;19917;-48
2023/02/10 12:19:59;;;;;;;;;;;;;;;12.76;19.46;94820.84;5049053;28;19966;-47
2023/02/10 12:23:00;;;;;;;;;;;;;;;12.86;19.45;94817.13;5049211;28;19917;-47
2023/02/10 12:25:31;;;;;;;;;;;;;;;11.79;19.10;94810.28;4987081;28;19917;-51
2023/02/10 12:27:57;;;;;;;;;;;;;;;11.13;20.39;94816.59;5026833;28;20447;-49
2023/02/10 12:30:31;;;;;;;;;;;;;;;10.98;20.59;94819.03;5049573;28;19960;-48
2023/02/10 12:32:56;;;;;;;;;;;;;;;10.72;22.43;94816.03;5048684;28;19970;-47
2023/02/10 12:35:48;;;;;;;;;;;;;;;11.35;22.98;94805.28;5049143;28;19913;-48
2023/02/10 12:38:28;;;;;;;;;;;;;;;11.50;19.84;94811.13;5045938;28;19917;-48
2023/02/10 12:40:56;;;;;;;;;;;;;;;10.66;21.81;94811.28;5031495;28;19922;-48
2023/02/10 12:43:34;;;;;;;;;;;;;;;11.43;21.19;94803.44;5042518;28;19917;-48
2023/02/10 12:45:59;;;;;;;;;;;;;;;10.53;19.15;94808.41;5049196;28;20576;-48